x

Buoy E01 - Central Maine Shelf (44032) Wave Buoy

6:04 - Wed 10th Feb 2016 All times are EST. -5 hours from GMT.

  • Sig Wave height 4.6ft
  • Peak Period 11s
  • Wind
    2mph, 4mph gusts
  • Sea Temp 42°f
  • Ar Temp 26°f
  • Sea Pressure 1002.1mb
  • Buoy E01 - Central Maine Shelf
  • Buoy E01 - Central Maine Shelf

More Historic Weather Station data

Upgrade to MSW Pro to gain access to the past 30 days of data for over 8000 Wavebouys and Weather Stations around the globe.

Join Pro

Comparision Forecast

View Surf forecast
   
Qua 02/10 6:04 4.5ft 11s 2 4 mph 1002.1mb 42f 26f
5:04 4ft 11s 4 7 mph 1001.5mb 42f 26f
4:04 4.5ft 11s 4 9 mph 1001.3mb 42f 25f
3:04 6ft 11s 7 11 mph 1001.5mb 42f 24f
2:04 5ft 11s 9 11 mph 1001.5mb 42f 24f
1:04  -   -  11 16 mph 1001mb 42f 24f
12:04 6ft 11s 9 16 mph 1001.1mb 42f 23f
Ter 02/09 11:04 5.5ft 11s 9 13 mph 1001.3mb 42f 24f
10:04  -   -  9 13 mph 1001.5mb 42f 24f
9:04  -   -  11 16 mph 1001.1mb 42f 25f
8:04 5ft 8s 13 18 mph 1001.4mb 42f 25f
7:04  -   -  16 18 mph 1001.9mb 42f 26f
6:04 9ft 11s 11 13 mph 1001.8mb 42f 26f
5:04 7ft 11s 9 13 mph 1001.7mb 42f 26f
4:04 8ft 11s 9 11 mph 1001.3mb 42f 26f
3:04 10ft 16s 13 18 mph 1000.7mb 42f 26f
2:04 11.5ft 16s 11 18 mph 1000.9mb 42f 25f
1:04 13ft 11s 11 16 mph 1002.4mb 42f 24f
12:04 12.5ft 16s 13 18 mph 1002.7mb 42f 24f
11:04 12ft 16s 11 16 mph 1004.4mb 42f 23f
10:04 13.5ft 16s 11 16 mph 1005.1mb 42f 23f
9:04  -   -  11 16 mph 1005.4mb 42f 22f
8:04 15ft 16s 18 25 mph 1004mb 42f 22f
7:04  -   -  13 18 mph 1005.7mb 42f 22f
6:04  -   -  18 22 mph 1005.6mb 42f 22f
5:04  -   -  20 31 mph 1005.4mb 42f 22f
4:04  -   -  22 27 mph 1005.3mb 42f 22f
3:04  -   -  25 31 mph 1005.1mb 42f 22f
2:04 12ft 11s 29 40 mph 1006mb 42f 22f
1:04 10ft 11s 27 40 mph 1006.2mb 42f 23f
12:04 9.5ft 11s 31 43 mph 1006mb 42f 23f
Seg 02/08 11:04 9.5ft 11s 34 45 mph 1005.4mb 42f 23f
10:04 11ft 11s 29 36 mph 1006.2mb 43f 24f
9:04 8.5ft 11s 29 47 mph 1006.3mb 43f 24f
8:04 11ft 11s 31 43 mph 1006.1mb 43f 24f
7:04 10.5ft 11s 27 34 mph 1005.9mb 42f 24f
6:04 9ft 8s 31 40 mph 1005.2mb 42f 24f
5:04 10.5ft 11s 29 34 mph 1005.1mb 42f 24f
4:04 11ft 11s 34 45 mph 1005.6mb 42f 24f
3:04 10ft 11s 29 36 mph 1006.6mb 42f 23f
2:04 11ft 11s 31 45 mph 1007.2mb 42f 24f
1:04 8.5ft 8s 29 36 mph 1008.2mb 42f 23f
12:04 9ft 8s 29 34 mph 1010mb 42f 23f
11:04 9.5ft 8s 31 38 mph 1010.1mb 42f 23f
10:04 10ft 8s 31 38 mph 1011.1mb 42f 23f
9:04 9.5ft 8s 34 43 mph 1011.7mb 42f 23f
8:04 8.5ft 8s 31 40 mph 1013mb 42f 23f
7:04 8ft 6s 31 38 mph 1013.5mb 42f 23f
6:04 7.5ft 6s 34 45 mph 1014.3mb 42f 24f
5:04 7ft 6s 29 38 mph 1015.5mb 42f 25f
4:04 7ft 6s 27 34 mph 1016.8mb 42f 26f
3:04 5ft 5s 29 34 mph 1017.3mb 42f 26f
2:04 6ft 5s 29 45 mph 1018.2mb 42f 28f
1:04 6.5ft 5s 27 34 mph 1019.3mb 42f 29f
12:04 5ft 5s 27 36 mph 1019.8mb 42f 31f
Dom 02/07 11:04 5ft 5s 29 40 mph 1019.7mb 42f 33f
10:04 4ft 4s 27 31 mph 1020.1mb 42f 34f
9:04 3ft 3s 25 29 mph 1020.5mb 42f 36f
8:04 2ft 3s 16 20 mph 1020.7mb 42f 38f
7:04 1.6ft 4s 13 16 mph 1021mb 42f 39f
6:04 2ft 5s 13 16 mph 1020.6mb 43f 39f
5:04 3ft 11s 13 16 mph 1020.1mb 43f 39f
4:04 2.5ft 11s 11 13 mph 1020mb 43f 41f
3:04 2.5ft 5s 4 7 mph 1020.2mb 43f 41f
2:04 2.5ft 5s 11 13 mph 1019.7mb 43f 41f
1:04 3ft 5s 11 13 mph 1019.9mb 42f 40f
12:04 3.5ft 6s 13 16 mph 1018.8mb 42f 39f
11:04 4ft 5s 13 16 mph 1019.2mb 42f 39f
10:04 4.5ft 6s 16 20 mph 1019mb 42f 38f
9:04 4.5ft 6s 18 20 mph 1018.6mb 42f 38f
8:04 4.5ft 6s 18 22 mph 1018.6mb 42f 37f
7:04 5.5ft 6s 20 25 mph 1018.2mb 42f 39f
6:04 5.5ft 6s 25 29 mph 1017.8mb 42f 39f
5:04 6.5ft 6s 22 29 mph 1017.9mb 42f 39f
4:04 6ft 6s 22 27 mph 1017.9mb 42f 38f
3:04 6ft 6s 22 27 mph 1018.2mb 42f 38f
2:04 7ft 6s 25 27 mph 1018.7mb 42f 39f
1:04 7ft 6s 25 29 mph 1019.2mb 42f 39f
12:04 7.5ft 6s 27 34 mph 1019.8mb 42f 39f
Sáb 02/06 11:04 7ft 6s 25 31 mph 1020.5mb 42f 39f
10:04 8ft 8s 27 34 mph 1020.6mb 42f 39f
9:04 7.5ft 6s 25 31 mph 1021.4mb 42f 39f
8:04 7ft 6s 25 31 mph 1021.8mb 42f 39f
7:04 7ft 5s 25 31 mph 1022mb 42f 39f
6:04 6ft 5s 25 31 mph 1022.1mb 42f 39f
5:04 6ft 5s 27 31 mph 1022.1mb 42f 38f
4:04 5ft 5s 25 29 mph 1022.4mb 42f 38f
3:04 5ft 5s 22 29 mph 1022.8mb 42f 37f
2:04 5ft 5s 22 27 mph 1022.9mb 42f 37f
1:04 5ft 5s 22 27 mph 1023.5mb 42f 36f